createdAt,value
2023-04-15T00:00:59.900Z,10.40
2023-04-15T00:03:29.053Z,10.20
2023-04-15T00:05:57.850Z,10.20
2023-04-15T00:08:26.455Z,10.20
2023-04-15T00:10:55.099Z,10.20
2023-04-15T00:13:25.205Z,10.20
2023-04-15T00:15:53.822Z,10.20
2023-04-15T00:18:22.931Z,10.20
2023-04-15T00:20:51.580Z,10.20
2023-04-15T00:23:20.099Z,10.20
2023-04-15T00:25:48.949Z,10.10
2023-04-15T00:30:47.889Z,10.00
2023-04-15T00:33:17.837Z,10.00
2023-04-15T00:35:46.431Z,10.00
2023-04-15T00:38:15.035Z,10.00
2023-04-15T00:40:44.368Z,10.00
2023-04-15T00:43:13.055Z,9.90
2023-04-15T00:48:30.154Z,9.80
2023-04-15T00:51:01.762Z,9.90
2023-04-15T00:53:30.442Z,9.80
2023-04-15T00:55:59.125Z,9.80
2023-04-15T00:58:28.739Z,9.80
2023-04-15T01:00:58.331Z,9.80
2023-04-15T01:03:26.824Z,9.80
2023-04-15T01:05:58.472Z,9.80
2023-04-15T01:08:28.397Z,9.70
2023-04-15T01:10:58.013Z,9.70
2023-04-15T01:13:26.852Z,9.70
2023-04-15T01:15:55.828Z,9.70
2023-04-15T01:18:24.759Z,9.70
2023-04-15T01:20:56.312Z,9.60
2023-04-15T01:23:27.582Z,9.60
2023-04-15T01:25:57.541Z,9.60
2023-04-15T01:28:26.059Z,9.60
2023-04-15T01:31:07.605Z,9.60
2023-04-15T01:33:38.937Z,9.50
2023-04-15T01:36:10.090Z,9.50
2023-04-15T01:38:38.563Z,9.60
2023-04-15T01:41:08.810Z,9.50
2023-04-15T01:43:37.951Z,9.50
2023-04-15T01:46:07.973Z,9.50
2023-04-15T01:48:41.030Z,9.50
2023-04-15T01:51:13.285Z,9.50
2023-04-15T01:53:42.169Z,9.50
2023-04-15T01:56:12.039Z,9.50
2023-04-15T01:58:40.756Z,9.50
2023-04-15T02:01:10.637Z,9.50
2023-04-15T02:03:39.675Z,9.40
2023-04-15T02:06:08.236Z,9.40
2023-04-15T02:08:36.616Z,9.40
2023-04-15T02:11:08.385Z,9.50
2023-04-15T02:13:38.285Z,9.40
2023-04-15T02:16:16.798Z,9.40
2023-04-15T02:18:46.037Z,9.40
2023-04-15T02:21:14.384Z,9.40
2023-04-15T02:23:44.101Z,9.40
2023-04-15T02:26:15.048Z,9.40
2023-04-15T02:28:44.789Z,9.30
2023-04-15T02:31:16.731Z,9.30
2023-04-15T02:33:47.901Z,9.40
2023-04-15T02:36:17.496Z,9.30
2023-04-15T02:38:47.073Z,9.40
2023-04-15T02:41:17.957Z,9.30
2023-04-15T02:43:48.825Z,9.30
2023-04-15T02:46:18.066Z,9.30
2023-04-15T02:48:48.986Z,9.30
2023-04-15T02:51:19.965Z,9.30
2023-04-15T02:53:49.435Z,9.30
2023-04-15T02:56:19.531Z,9.20
2023-04-15T02:58:50.765Z,9.30
2023-04-15T03:01:20.737Z,9.20
2023-04-15T06:15:37.315Z,10.30
2023-04-15T06:18:07.071Z,10.30
2023-04-15T06:20:35.536Z,10.30
2023-04-15T06:23:05.109Z,10.30
2023-04-15T06:25:33.745Z,10.30
2023-04-15T06:28:02.268Z,10.20
2023-04-15T06:30:30.770Z,10.20
2023-04-15T06:33:00.661Z,10.20
2023-04-15T06:35:29.040Z,10.20
2023-04-15T06:37:57.769Z,10.20
2023-04-15T06:40:26.102Z,10.30
2023-04-15T06:42:54.497Z,10.30
2023-04-15T06:45:24.154Z,10.30
2023-04-15T06:47:52.908Z,10.40
2023-04-15T06:50:22.891Z,10.30
2023-04-15T06:52:52.527Z,10.30
2023-04-15T06:55:21.097Z,10.40
2023-04-15T06:57:49.397Z,10.40
2023-04-15T07:00:17.867Z,10.50
2023-04-15T07:02:46.945Z,10.50
2023-04-15T07:05:15.813Z,10.50
2023-04-15T07:07:45.665Z,10.50
2023-04-15T07:10:15.063Z,10.50
2023-04-15T07:12:43.765Z,10.60
2023-04-15T07:15:12.755Z,10.60
2023-04-15T07:17:42.004Z,10.70
2023-04-15T07:20:10.843Z,10.80
2023-04-15T07:22:39.237Z,10.90
2023-04-15T07:25:09.906Z,10.90
2023-04-15T07:27:38.469Z,11.00
2023-04-15T07:30:07.574Z,11.00
2023-04-15T07:32:36.189Z,11.00
2023-04-15T07:35:05.002Z,11.10
2023-04-15T07:37:33.781Z,11.20
2023-04-15T07:40:04.840Z,11.20
2023-04-15T07:42:34.915Z,11.30
2023-04-15T07:45:03.443Z,11.30
2023-04-15T07:47:31.891Z,11.30
2023-04-15T07:50:00.331Z,11.40
2023-04-15T07:52:28.680Z,11.40
2023-04-15T07:54:57.179Z,11.50
2023-04-15T07:57:25.696Z,11.50
2023-04-15T07:59:55.534Z,11.40
2023-04-15T08:02:24.128Z,11.40
2023-04-15T08:04:53.450Z,11.40
2023-04-15T08:07:22.395Z,11.30
2023-04-15T08:09:51.116Z,11.30
2023-04-15T08:12:19.600Z,11.30
2023-04-15T08:14:47.977Z,11.30
2023-04-15T08:17:17.888Z,11.40
2023-04-15T08:19:46.205Z,11.40
2023-04-15T08:22:17.300Z,11.40
2023-04-15T08:24:49.896Z,11.50
2023-04-15T08:27:18.358Z,11.60
2023-04-15T08:29:47.339Z,11.60
2023-04-15T08:32:16.299Z,11.60
2023-04-15T08:34:47.399Z,11.70
2023-04-15T08:37:15.743Z,11.70
2023-04-15T08:39:45.461Z,11.70
2023-04-15T08:42:15.572Z,11.70
2023-04-15T08:44:44.798Z,11.80
2023-04-15T08:47:15.014Z,11.70
2023-04-15T08:49:44.117Z,11.80
2023-04-15T08:52:14.511Z,11.80
2023-04-15T08:54:43.291Z,11.80
2023-04-15T08:57:12.143Z,11.80
2023-04-15T08:59:40.829Z,11.90
2023-04-15T09:02:09.474Z,11.80
2023-04-15T09:04:37.890Z,11.90
2023-04-15T09:07:06.531Z,11.90
2023-04-15T09:09:37.652Z,11.80
2023-04-15T09:12:06.003Z,11.80
2023-04-15T09:14:35.157Z,11.80
2023-04-15T09:17:05.024Z,11.80
2023-04-15T09:19:34.840Z,11.80
2023-04-15T09:22:03.402Z,11.80
2023-04-15T09:24:38.337Z,11.70
2023-04-15T09:27:06.974Z,11.80
2023-04-15T09:29:35.357Z,11.80
2023-04-15T09:32:13.926Z,11.80
2023-04-15T09:34:42.331Z,11.80
2023-04-15T09:37:24.616Z,11.90
2023-04-15T09:40:04.147Z,12.00
2023-04-15T09:42:32.801Z,12.00
2023-04-15T09:45:09.515Z,12.10
2023-04-15T09:47:37.981Z,12.20
2023-04-15T09:50:07.061Z,12.30
2023-04-15T09:52:35.536Z,12.40
2023-04-15T09:58:10.556Z,12.70
2023-04-15T10:00:39.304Z,13.00
2023-04-15T10:03:08.119Z,13.10
2023-04-15T10:05:36.934Z,13.30
2023-04-15T10:08:05.966Z,13.30
2023-04-15T10:10:35.842Z,13.40
2023-04-15T10:13:04.553Z,13.50
2023-04-15T10:15:35.285Z,13.60
2023-04-15T10:18:04.513Z,13.70
2023-04-15T10:20:32.952Z,13.70
2023-04-15T10:23:01.483Z,13.80
2023-04-15T10:28:36.606Z,14.00
2023-04-15T10:31:06.268Z,14.10
2023-04-15T10:33:35.212Z,14.20
2023-04-15T10:36:03.605Z,14.30
2023-04-15T10:42:07.545Z,14.40
2023-04-15T10:44:39.187Z,14.50
2023-04-15T10:47:26.276Z,14.50
2023-04-15T10:49:59.592Z,14.50
2023-04-15T10:52:28.887Z,14.50
2023-04-15T10:55:03.696Z,14.50
2023-04-15T10:57:39.224Z,14.50
2023-04-15T11:00:16.086Z,14.50
2023-04-15T11:02:46.173Z,14.60
2023-04-15T11:05:15.018Z,14.70
2023-04-15T11:07:49.879Z,14.70
2023-04-15T11:13:49.038Z,15.10
2023-04-15T11:16:18.936Z,15.20
2023-04-15T11:18:55.207Z,15.20
2023-04-15T11:21:26.291Z,15.30
2023-04-15T11:23:54.808Z,15.50
2023-04-15T11:26:27.865Z,15.60
2023-04-15T11:29:00.626Z,15.80
2023-04-15T11:31:46.582Z,15.80
2023-04-15T11:34:24.515Z,16.00
2023-04-15T11:37:11.420Z,15.90
2023-04-15T11:39:41.116Z,15.90
2023-04-15T11:42:22.790Z,15.90
2023-04-15T11:44:57.130Z,15.80
2023-04-15T11:47:35.880Z,15.80
2023-04-15T11:50:18.234Z,15.70
2023-04-15T11:53:02.731Z,15.80
2023-04-15T11:55:35.540Z,15.80
2023-04-15T11:58:16.222Z,15.80
2023-04-15T12:00:54.148Z,15.90
2023-04-15T12:03:44.563Z,15.90
2023-04-15T12:06:21.217Z,16.00
2023-04-15T12:09:08.149Z,16.10
2023-04-15T12:11:49.426Z,16.20
2023-04-15T12:14:25.358Z,16.30
2023-04-15T12:16:58.474Z,16.40
2023-04-15T12:19:33.026Z,16.50
2023-04-15T12:22:05.975Z,16.60
2023-04-15T12:24:38.429Z,16.50
2023-04-15T12:27:10.237Z,16.30
2023-04-15T12:29:41.065Z,16.30
2023-04-15T12:32:11.336Z,16.40
2023-04-15T12:34:48.032Z,16.50
2023-04-15T12:37:21.057Z,16.50
2023-04-15T12:39:51.494Z,16.50
2023-04-15T12:42:20.948Z,16.50
2023-04-15T12:44:53.188Z,16.60
2023-04-15T12:47:23.115Z,16.50
2023-04-15T12:52:44.899Z,16.60
2023-04-15T12:55:16.422Z,16.70
2023-04-15T12:57:57.744Z,16.90
2023-04-15T13:00:30.934Z,17.00
2023-04-15T13:03:04.054Z,17.10
2023-04-15T13:05:42.272Z,17.10
2023-04-15T13:08:16.615Z,17.00
2023-04-15T13:10:45.226Z,17.10
2023-04-15T13:13:13.594Z,17.20
2023-04-15T13:15:42.303Z,17.20
2023-04-15T13:18:11.039Z,17.30
2023-04-15T13:20:41.003Z,17.40
2023-04-15T13:23:09.586Z,17.40
2023-04-15T13:25:38.088Z,17.50
2023-04-15T13:28:06.772Z,17.40
2023-04-15T13:30:53.686Z,17.30
2023-04-15T13:33:22.242Z,17.20
2023-04-15T13:35:52.040Z,17.10
2023-04-15T13:44:30.175Z,17.00
2023-04-15T13:46:58.549Z,17.20
2023-04-15T13:49:27.098Z,17.20
2023-04-15T13:51:56.918Z,17.30
2023-04-15T13:54:25.637Z,17.50
2023-04-15T13:57:06.682Z,17.50
2023-04-15T13:59:35.144Z,17.50
2023-04-15T14:02:03.797Z,17.40
2023-04-15T14:04:32.678Z,17.40
2023-04-15T14:07:05.318Z,17.30
2023-04-15T14:09:35.444Z,17.30
2023-04-15T14:12:04.118Z,17.40
2023-04-15T14:14:32.645Z,17.40
2023-04-15T14:17:02.134Z,17.20
2023-04-15T14:19:31.720Z,17.20
2023-04-15T14:22:00.306Z,17.20
2023-04-15T14:24:31.147Z,17.30
2023-04-15T14:27:00.138Z,17.30
2023-04-15T14:29:28.526Z,17.30
2023-04-15T14:32:08.618Z,17.30
2023-04-15T14:34:40.216Z,17.20
2023-04-15T14:37:08.674Z,17.30
2023-04-15T14:39:38.669Z,17.20
2023-04-15T14:42:07.290Z,17.20
2023-04-15T14:44:35.746Z,17.20
2023-04-15T14:47:04.248Z,17.20
2023-04-15T14:49:33.632Z,17.30
2023-04-15T14:52:04.307Z,17.30
2023-04-15T14:54:32.736Z,17.20
2023-04-15T14:57:03.110Z,17.30
2023-04-15T14:59:31.564Z,17.30
2023-04-15T15:02:00.034Z,17.40
2023-04-15T15:04:28.626Z,17.50
2023-04-15T15:06:57.109Z,17.60
2023-04-15T15:09:25.580Z,17.60
2023-04-15T15:11:53.931Z,17.30
2023-04-15T15:14:23.862Z,17.10
2023-04-15T15:16:52.570Z,16.90
2023-04-15T15:19:21.051Z,16.70
2023-04-15T15:21:49.482Z,16.50
2023-04-15T15:24:17.945Z,16.40
2023-04-15T15:26:46.383Z,16.40
2023-04-15T15:29:14.932Z,16.40
2023-04-15T15:31:44.887Z,16.30
2023-04-15T15:34:13.502Z,16.20
2023-04-15T15:36:41.871Z,16.10
2023-04-15T15:39:10.347Z,16.10
2023-04-15T15:41:38.851Z,15.90
2023-04-15T15:44:07.291Z,15.80
2023-04-15T15:46:35.855Z,15.70
2023-04-15T15:49:06.015Z,15.60
2023-04-15T15:51:34.705Z,15.60
2023-04-15T15:54:03.129Z,15.60
2023-04-15T15:56:31.546Z,15.50
2023-04-15T15:59:00.040Z,15.40
2023-04-15T16:01:28.512Z,15.30
2023-04-15T16:03:57.186Z,15.20
2023-04-15T16:06:27.312Z,15.20
2023-04-15T16:08:56.401Z,15.10
2023-04-15T16:11:24.821Z,15.00
2023-04-15T16:13:53.302Z,15.00
2023-04-15T16:16:22.290Z,14.90
2023-04-15T16:18:51.184Z,14.90
2023-04-15T16:21:20.485Z,14.90
2023-04-15T16:23:50.353Z,14.90
2023-04-15T16:26:18.892Z,14.80
2023-04-15T16:28:47.364Z,14.80
2023-04-15T16:31:18.169Z,14.70
2023-04-15T16:33:47.024Z,14.70
2023-04-15T16:36:15.744Z,14.60
2023-04-15T16:38:48.793Z,14.60
2023-04-15T16:41:18.815Z,14.50
2023-04-15T16:43:47.329Z,14.50
2023-04-15T16:46:15.771Z,14.50
2023-04-15T16:48:44.303Z,14.40
2023-04-15T16:51:12.672Z,14.40
2023-04-15T16:53:41.064Z,14.30
2023-04-15T16:56:09.584Z,14.30
2023-04-15T16:58:39.389Z,14.30
2023-04-15T17:01:07.858Z,14.20
2023-04-15T17:03:37.022Z,14.20
2023-04-15T17:06:05.765Z,14.10
2023-04-15T17:08:34.114Z,14.10
2023-04-15T17:11:02.554Z,14.00
2023-04-15T17:13:31.069Z,14.00
2023-04-15T17:16:00.842Z,14.00
2023-04-15T17:18:29.442Z,13.90
2023-04-15T17:20:57.877Z,13.90
2023-04-15T17:23:27.284Z,13.80
2023-04-15T17:25:55.707Z,13.80
2023-04-15T17:28:24.061Z,13.70
2023-04-15T17:30:52.452Z,13.70
2023-04-15T17:33:57.516Z,13.70
2023-04-15T17:36:13.018Z,13.60
2023-04-15T17:38:41.524Z,13.60
2023-04-15T17:41:09.919Z,13.50
2023-04-15T17:43:38.383Z,13.50
2023-04-15T17:46:07.651Z,13.40
2023-04-15T17:48:37.392Z,13.30
2023-04-15T17:51:05.905Z,13.30
2023-04-15T17:53:34.363Z,13.20
2023-04-15T17:56:02.741Z,13.20
2023-04-15T17:58:31.165Z,13.10
2023-04-15T20:00:23.483Z,11.70
2023-04-15T20:02:51.974Z,11.70
2023-04-15T20:05:22.986Z,11.50
2023-04-15T20:07:53.128Z,11.50
2023-04-15T20:10:21.683Z,11.40
2023-04-15T20:12:53.036Z,11.30
2023-04-15T20:17:55.449Z,11.30
2023-04-15T20:20:27.109Z,11.20
2023-04-15T20:22:58.882Z,11.10
2023-04-15T20:25:27.417Z,11.10
2023-04-15T20:27:58.153Z,11.00
2023-04-15T20:30:29.026Z,11.00
2023-04-15T20:32:58.941Z,11.00
2023-04-15T20:35:31.160Z,10.90
2023-04-15T20:37:59.972Z,10.90
2023-04-15T20:40:28.605Z,10.90
2023-04-15T20:42:57.174Z,10.90
2023-04-15T20:45:27.139Z,10.80
2023-04-15T20:47:57.245Z,10.70
2023-04-15T20:50:27.168Z,10.60
2023-04-15T20:52:55.655Z,10.60
2023-04-15T20:55:24.253Z,10.50
2023-04-15T20:57:52.666Z,10.40
2023-04-15T21:00:21.346Z,10.30
2023-04-15T21:02:49.863Z,10.50
2023-04-15T21:05:18.353Z,9.70
2023-04-15T21:07:48.039Z,10.30
2023-04-15T21:10:16.426Z,11.70
2023-04-15T21:12:45.101Z,10.30
2023-04-15T21:15:13.739Z,10.10
2023-04-15T21:17:42.319Z,10.10
2023-04-15T21:20:11.171Z,10.10
2023-04-15T21:22:39.622Z,10.10
2023-04-15T21:25:10.456Z,10.20
2023-04-15T21:27:38.882Z,10.20
2023-04-15T21:30:07.821Z,10.10
2023-04-15T21:32:36.477Z,10.20
2023-04-15T21:35:05.104Z,10.00
2023-04-15T21:37:33.396Z,10.00
2023-04-15T21:40:02.107Z,10.00
2023-04-15T21:42:32.519Z,10.00
2023-04-15T21:45:01.266Z,10.00
2023-04-15T21:47:29.844Z,9.90
2023-04-15T22:32:09.709Z,9.30
2023-04-15T22:34:38.211Z,9.30
2023-04-15T22:37:06.787Z,9.30
2023-04-15T22:39:35.414Z,9.20
2023-04-15T22:42:04.025Z,9.20
2023-04-15T22:44:32.419Z,9.10
2023-04-15T22:47:01.345Z,9.10
2023-04-15T22:49:31.320Z,9.10
2023-04-15T22:51:59.620Z,9.10
2023-04-15T22:54:27.949Z,9.00
2023-04-15T23:14:26.230Z,8.60
2023-04-15T23:19:23.178Z,8.30
2023-04-15T23:21:51.846Z,8.10
2023-04-15T23:24:20.277Z,8.00
2023-04-15T23:26:48.502Z,7.80
2023-04-15T23:29:16.985Z,7.60
2023-04-15T23:31:46.721Z,7.50
2023-04-15T23:34:15.022Z,7.50
2023-04-15T23:36:43.409Z,7.40
2023-04-15T23:39:11.871Z,7.40
2023-04-15T23:41:40.334Z,7.40
2023-04-15T23:44:09.833Z,7.40
2023-04-15T23:46:38.134Z,7.40
2023-04-15T23:49:08.048Z,7.40
2023-04-15T23:51:36.532Z,7.50
2023-04-15T23:54:04.877Z,7.60
2023-04-15T23:56:33.165Z,7.70
2023-04-15T23:59:01.458Z,7.80
